Latest Weather Observations for Walpole North

IDW60801

Issued at 12:02 pm WST Saturday 25 April 2015 (issued every 30 minutes, with the page automatically refreshed every 10 minutes)

About weather observations | Map of weather stations | Latest weather observations for WA | Other Formats
Station Details ID: 009998 Name: NORTH WALPOLE Lat: -34.95 Lon: 116.72 Height: 73.0 m
Data from the previous 72 hours. | See also: Recent months at Walpole North
Date/Time
WST
Temp
°C
App
Temp
°C
Dew
Point
Rel
Hum
%
Delta-T
°C
Wind Press
QNH
hPa
Press
MSL
hPa
Rain
since 9 am
mm
Dir
 
Spd
km/h
Gust
km/h
Spd
kts
Gust
kts
25/12:00pm 18.0 15.5 8.0 52 5.1 ENE 11 19 6 10 1028.2 1028.1 0.0
25/11:30am 18.1 16.3 9.5 57 4.5 ENE 9 15 5 8 1028.6 1028.5 0.0
25/11:00am 17.3 15.2 9.7 61 4.0 NE 11 17 6 9 1028.9 1028.8 0.0
25/10:30am 16.2 13.7 9.8 66 3.4 ENE 13 20 7 11 1029.2 1029.1 0.0
25/10:00am 16.4 14.9 10.7 69 3.0 NNE 9 19 5 10 1029.4 1029.3 0.0
25/09:30am 14.8 13.0 10.8 77 2.1 NNE 11 20 6 11 1029.6 1029.5 0.0
25/09:00am 13.4 12.8 11.8 90 0.9 NE 6 9 3 5 1029.7 1029.6 0.0
25/08:30am 12.1 12.1 11.0 93 0.6 SE 2 7 1 4 1029.8 1029.7 0.0
25/08:00am 10.3 10.3 9.7 96 0.3 CALM 0 0 0 0 1029.6 1029.5 0.0
25/07:30am 8.8 7.9 7.9 94 0.4 SSE 2 7 1 4 1029.0 1028.9 0.0
25/07:00am 9.6 9.2 8.4 92 0.6 CALM 0 0 0 0 1028.7 1028.6 0.0
25/06:30am 9.8 9.4 8.4 91 0.7 CALM 0 0 0 0 1028.7 1028.6 0.0
25/06:00am 10.1 9.8 8.5 90 0.8 CALM 0 0 0 0 1028.5 1028.4 0.0
25/05:30am 10.6 9.0 8.9 89 0.8 NE 7 11 4 6 1028.5 1028.4 0.0
25/05:00am 10.5 8.5 8.6 88 0.9 NE 9 13 5 7 1028.5 1028.4 0.0
25/04:30am 11.0 10.4 8.9 87 1.0 NE 2 11 1 6 1028.5 1028.4 0.0
25/04:00am 11.1 10.4 8.7 85 1.2 NE 2 7 1 4 1028.6 1028.5 0.0
25/03:30am 11.7 9.8 9.1 84 1.3 ENE 9 13 5 7 1028.6 1028.5 0.0
25/03:00am 11.7 8.7 9.4 86 1.2 NE 15 22 8 12 1028.6 1028.5 0.0
25/02:30am 11.0 8.7 8.9 87 1.0 NE 11 17 6 9 1028.8 1028.7 0.0
25/02:00am 11.2 8.8 8.8 85 1.2 NE 11 17 6 9 1028.8 1028.7 0.0
25/01:30am 11.5 8.8 9.1 85 1.2 NE 13 19 7 10 1028.9 1028.8 0.0
25/01:00am 11.0 8.5 8.2 83 1.4 ENE 11 15 6 8 1028.9 1028.8 0.0
25/12:30am 11.6 9.5 8.1 79 1.7 ENE 9 15 5 8 1028.9 1028.8 0.0
25/12:00am 12.2 9.3 8.3 77 1.9 ENE 13 19 7 10 1029.1 1029.0 0.0
 
Date/Time
WST
Temp
°C
App
Temp
°C
Dew
Point
Rel
Hum
%
Delta-T
°C
Wind Press
QNH
hPa
Press
MSL
hPa
Rain
since 9 am
mm
Dir
 
Spd
km/h
Gust
km/h
Spd
kts
Gust
kts
24/11:30pm 12.2 10.6 8.1 76 2.0 E 6 9 3 5 1029.3 1029.2 0.0
24/11:00pm 12.6 10.5 8.1 74 2.2 ENE 9 11 5 6 1029.6 1029.5 0.0
24/10:30pm 12.8 10.3 8.1 73 2.3 NE 11 15 6 8 1029.8 1029.7 0.0
24/10:00pm 12.9 10.8 8.2 73 2.3 NE 9 15 5 8 1030.0 1029.9 0.0
24/09:30pm 12.9 10.7 8.0 72 2.4 ENE 9 13 5 7 1030.0 1029.9 0.0
24/09:00pm 12.9 10.4 8.2 73 2.3 ENE 11 17 6 9 1029.6 1029.5 0.0
24/08:30pm 13.0 10.9 8.3 73 2.3 ENE 9 15 5 8 1029.6 1029.5 0.0
24/08:00pm 12.9 11.2 8.4 74 2.2 ENE 7 9 4 5 1029.6 1029.5 0.0
24/07:30pm 13.0 11.3 8.5 74 2.3 E 7 13 4 7 1029.6 1029.5 0.0
24/07:00pm 13.1 11.0 8.2 72 2.4 E 9 13 5 7 1029.6 1029.5 0.0
24/06:30pm 13.2 11.5 8.3 72 2.4 ENE 7 11 4 6 1029.5 1029.4 0.0
24/06:00pm 13.7 11.0 7.5 66 3.0 ESE 11 17 6 9 1029.4 1029.3 0.0
24/05:30pm 13.8 11.3 8.0 68 2.9 ESE 11 17 6 9 1029.4 1029.3 0.0
24/05:00pm 14.0 11.3 8.8 71 2.6 ESE 13 20 7 11 1029.4 1029.3 0.0
24/04:30pm 14.0 11.6 8.8 71 2.6 E 11 17 6 9 1029.5 1029.4 0.0
24/04:00pm 14.1 11.0 8.9 71 2.6 E 15 24 8 13 1029.7 1029.6 0.0
24/03:30pm 14.8 11.6 10.0 73 2.5 ESE 17 24 9 13 1029.7 1029.6 0.0
24/03:00pm 14.6 10.9 10.0 74 2.4 ESE 20 32 11 17 1029.6 1029.5 0.0
24/02:30pm 14.5 11.8 10.3 76 2.2 ESE 15 22 8 12 1029.9 1029.8 0.0
24/02:00pm 14.4 11.0 9.0 70 2.7 ESE 17 24 9 13 1030.0 1029.9 0.0
24/01:30pm 14.7 12.3 9.9 73 2.5 ESE 13 20 7 11 1030.2 1030.1 0.0
24/01:00pm 14.0 10.6 9.0 72 2.5 ESE 17 24 9 13 1030.4 1030.3 0.0
24/12:30pm 14.7 11.9 8.4 66 3.2 E 13 22 7 12 1030.7 1030.6 0.0
24/12:00pm 14.5 11.3 8.5 67 3.0 E 15 24 8 13 1030.9 1030.8 0.0
24/11:30am 14.7 10.7 8.4 66 3.2 E 19 30 10 16 1031.2 1031.1 0.0
24/11:00am 14.3 11.4 8.3 67 3.0 E 13 20 7 11 1031.4 1031.3 0.0
24/10:30am 14.6 12.2 8.8 68 3.0 E 11 17 6 9 1031.4 1031.3 0.0
24/10:00am 13.9 11.5 8.7 71 2.6 ENE 11 17 6 9 1031.6 1031.5 0.0
24/09:30am 13.1 10.2 8.2 72 2.4 ENE 13 19 7 10 1031.8 1031.7 0.0
24/09:00am 12.7 9.7 7.8 72 2.4 ENE 13 19 7 10 1031.7 1031.6 0.0
24/08:30am 12.6 10.0 7.7 72 2.4 NE 11 20 6 11 1031.6 1031.5 0.0
24/08:00am 12.1 9.9 7.8 75 2.1 ENE 9 13 5 7 1031.3 1031.2 0.0
24/07:30am 12.0 9.7 7.5 74 2.2 E 9 15 5 8 1030.9 1030.8 0.0
24/07:00am 11.7 9.7 7.0 73 2.2 ENE 7 11 4 6 1030.6 1030.5 0.0
24/06:30am 11.8 9.4 6.9 72 2.3 ENE 9 13 5 7 1030.3 1030.2 0.0
24/06:00am 11.9 9.4 6.6 70 2.5 ENE 9 13 5 7 1030.3 1030.2 0.0
24/05:30am 12.3 9.8 6.6 68 2.7 E 9 15 5 8 1030.1 1030.0 0.0
24/05:00am 12.5 9.9 6.1 65 3.0 E 9 15 5 8 1030.1 1030.0 0.0
24/04:30am 12.5 9.1 5.7 63 3.2 ESE 13 19 7 10 1030.0 1029.9 0.0
24/04:00am 12.4 8.2 5.8 64 3.1 ESE 17 26 9 14 1030.1 1030.0 0.0
24/03:30am 12.2 9.7 6.5 68 2.7 E 9 11 5 6 1030.0 1029.9 0.0
24/03:00am 12.3 9.8 6.6 68 2.7 ENE 9 17 5 9 1030.0 1029.9 0.0
24/02:30am 12.6 9.7 6.6 67 2.9 ESE 11 19 6 10 1030.1 1030.0 0.0
24/02:00am 12.7 8.7 6.7 67 2.9 ESE 17 28 9 15 1030.1 1030.0 0.0
24/01:30am 12.7 9.0 6.1 64 3.1 ESE 15 24 8 13 1030.2 1030.1 0.0
24/01:00am 12.7 8.4 5.4 61 3.4 ESE 17 26 9 14 1030.1 1030.0 0.0
24/12:30am 13.0 7.9 5.9 62 3.4 ESE 22 32 12 17 1030.3 1030.2 0.0
24/12:00am 12.9 8.0 6.7 66 3.0 ESE 22 33 12 18 1030.2 1030.1 0.0
 
Date/Time
WST
Temp
°C
App
Temp
°C
Dew
Point
Rel
Hum
%
Delta-T
°C
Wind Press
QNH
hPa
Press
MSL
hPa
Rain
since 9 am
mm
Dir
 
Spd
km/h
Gust
km/h
Spd
kts
Gust
kts
23/11:30pm 12.7 8.9 5.8 63 3.3 E 15 20 8 11 1030.3 1030.2 0.0
23/11:00pm 12.6 8.7 5.5 62 3.3 ESE 15 24 8 13 1030.5 1030.4 0.0
23/10:30pm 12.7 7.4 5.1 60 3.5 ESE 22 35 12 19 1030.6 1030.5 0.0
23/10:00pm 12.7 7.9 5.4 61 3.4 SE 20 30 11 16 1030.7 1030.6 0.0
23/09:30pm 12.8 7.7 5.9 63 3.3 ESE 22 35 12 19 1030.5 1030.4 0.0
23/09:00pm 12.7 8.1 6.7 67 2.9 SE 20 35 11 19 1030.3 1030.2 0.0
23/08:30pm 12.9 8.1 5.6 61 3.4 ESE 20 30 11 16 1030.3 1030.2 0.0
23/08:00pm 13.1 6.9 6.2 63 3.3 SE 28 43 15 23 1030.2 1030.1 0.0
23/07:30pm 13.4 7.7 6.5 63 3.3 SE 26 41 14 22 1030.1 1030.0 0.0
23/07:00pm 13.4 8.5 7.0 65 3.1 SE 22 32 12 17 1029.9 1029.8 0.0
23/06:30pm 13.3 8.0 6.6 64 3.2 SE 24 37 13 20 1029.5 1029.4 0.0
23/06:00pm 13.7 8.6 7.5 66 3.0 SE 24 39 13 21 1029.2 1029.1 0.0
23/05:30pm 14.0 8.9 7.8 66 3.1 SE 24 37 13 20 1028.8 1028.7 0.0
23/05:00pm 14.3 9.7 8.3 67 3.0 SSE 22 35 12 19 1028.5 1028.4 0.0
23/04:30pm 14.6 9.8 8.8 68 3.0 SE 24 35 13 19 1028.2 1028.1 0.0
23/04:00pm 15.1 11.8 9.5 69 2.9 SE 17 26 9 14 1028.0 1027.9 0.0
23/03:30pm 15.6 11.9 9.5 67 3.2 SSE 19 33 10 18 1027.7 1027.6 0.0
23/03:00pm 16.0 12.3 9.4 65 3.4 SSE 19 33 10 18 1027.5 1027.4 0.0
23/02:30pm 15.9 12.0 9.6 66 3.3 SSE 20 35 11 19 1027.4 1027.3 0.0
23/02:00pm 16.3 13.1 9.9 66 3.3 SSE 17 30 9 16 1027.2 1027.1 0.0
23/01:30pm 16.4 13.4 10.5 68 3.1 SSE 17 30 9 16 1026.9 1026.8 0.0
23/01:00pm 17.7 15.3 12.6 72 2.8 SSE 17 32 9 17 1026.9 1026.8 0.0
23/12:30pm 17.5 15.7 12.0 70 3.0 SSE 13 26 7 14 1027.0 1026.9 0.0
23/12:00pm 16.9 15.0 11.8 72 2.8 SSE 13 24 7 13 1027.2 1027.1 0.0
23/11:30am 17.4 15.5 11.9 70 3.0 S 13 28 7 15 1027.4 1027.3 0.0
23/11:00am 16.8 14.7 11.1 69 3.1 SSE 13 28 7 15 1027.2 1027.1 0.0
23/10:30am 16.0 13.9 11.2 73 2.6 S 13 24 7 13 1027.3 1027.2 0.0
23/10:00am 16.0 14.0 10.3 69 3.0 S 11 17 6 9 1027.1 1027.0 0.0
23/09:30am 15.8 14.3 10.6 71 2.8 S 9 20 5 11 1026.9 1026.8 0.0
23/09:00am 15.5 13.9 10.3 71 2.7 S 9 20 5 11 1026.8 1026.7 0.0
23/08:30am 15.4 13.8 10.2 71 2.7 S 9 17 5 9 1026.6 1026.5 0.0
23/08:00am 15.1 12.7 10.1 72 2.6 S 13 24 7 13 1026.3 1026.2 0.0
23/07:30am 15.4 13.6 11.0 75 2.4 S 11 20 6 11 1025.8 1025.7 0.0
23/07:00am 15.2 13.7 10.6 74 2.4 S 9 19 5 10 1025.3 1025.2 0.0
23/06:30am 15.2 13.7 10.6 74 2.4 S 9 17 5 9 1025.1 1025.0 0.0
23/06:00am 15.4 14.4 11.0 75 2.3 S 7 19 4 10 1024.8 1024.7 0.0
23/05:30am 15.7 14.2 11.9 78 2.1 SSE 11 20 6 11 1024.6 1024.5 0.0
23/05:00am 15.7 15.1 13.4 86 1.3 SSE 9 20 5 11 1024.2 1024.1 0.0
23/04:30am 15.1 15.0 13.8 92 0.7 S 7 15 4 8 1023.8 1023.7 0.0
23/04:00am 15.2 14.1 14.2 94 0.6 SSE 13 22 7 12 1023.7 1023.6 0.0
23/03:30am 15.4 14.9 14.8 96 0.3 SSE 11 19 6 10 1023.5 1023.4 0.0
23/03:00am 15.3 15.5 14.8 97 0.3 S 7 17 4 9 1023.4 1023.2 0.0
23/02:30am 15.5 15.8 15.0 97 0.3 S 7 15 4 8 1023.3 1023.1 0.0
23/02:00am 15.1 15.8 14.6 97 0.3 S 4 9 2 5 1023.3 1023.1 0.0
23/01:30am 14.7 16.0 14.2 97 0.3 CALM 0 0 0 0 1023.2 1023.0 0.0
23/01:00am 14.6 15.9 14.0 96 0.3 CALM 0 0 0 0 1023.0 1022.8 0.0
23/12:30am 14.3 15.4 13.5 95 0.4 CALM 0 0 0 0 1022.8 1022.6 0.0
23/12:00am 14.8 16.1 14.2 96 0.3 CALM 0 0 0 0 1022.7 1022.5 0.0
 
Date/Time
WST
Temp
°C
App
Temp
°C
Dew
Point
Rel
Hum
%
Delta-T
°C
Wind Press
QNH
hPa
Press
MSL
hPa
Rain
since 9 am
mm
Dir
 
Spd
km/h
Gust
km/h
Spd
kts
Gust
kts
22/11:30pm 14.4 15.5 13.6 95 0.4 CALM 0 0 0 0 1022.7 1022.5 0.0
22/11:00pm 14.2 15.2 13.1 93 0.6 CALM 0 0 0 0 1022.8 1022.6 0.0
22/10:30pm 14.4 14.3 13.3 93 0.6 ENE 6 11 3 6 1022.7 1022.5 0.0
22/10:00pm 14.6 15.5 13.0 90 0.9 CALM 0 4 0 2 1022.9 1022.7 0.0
22/09:30pm 14.9 14.6 13.3 90 0.9 E 7 9 4 5 1022.9 1022.7 0.0
22/09:00pm 14.9 14.5 12.9 88 1.1 E 7 9 4 5 1022.8 1022.6 0.0
22/08:30pm 15.1 14.3 13.0 87 1.2 E 9 11 5 6 1022.7 1022.5 0.0
22/08:00pm 15.7 15.1 13.5 87 1.2 ENE 9 11 5 6 1022.6 1022.4 0.0
22/07:30pm 15.6 14.9 13.3 86 1.3 E 9 11 5 6 1022.5 1022.3 0.0
22/07:00pm 15.7 15.0 13.2 85 1.4 ESE 9 15 5 8 1022.6 1022.4 0.0
22/06:30pm 16.1 15.0 13.2 83 1.6 SE 11 15 6 8 1022.3 1022.1 0.0
22/06:00pm 16.5 15.4 13.2 81 1.8 ESE 11 17 6 9 1022.0 1021.8 0.0
22/05:30pm 17.3 15.8 13.2 77 2.3 ESE 13 22 7 12 1021.7 1021.5 0.0
22/05:00pm 18.0 15.8 13.3 74 2.7 ESE 17 26 9 14 1021.5 1021.3 0.0
22/04:30pm 18.7 16.7 13.8 73 2.8 SE 17 22 9 12 1021.3 1021.1 0.0
22/04:00pm 19.4 17.4 14.0 71 3.1 ESE 17 22 9 12 1021.3 1021.1 0.0
22/03:30pm 19.7 17.4 14.1 70 3.2 ESE 19 26 10 14 1021.3 1021.1 0.0
22/03:00pm 19.8 17.3 14.0 69 3.3 SE 20 28 11 15 1021.4 1021.2 0.0
22/02:30pm 20.4 18.1 14.7 70 3.3 SE 20 30 11 16 1021.3 1021.1 0.0
22/02:00pm 20.8 19.0 15.6 72 3.1 SE 19 26 10 14 1021.2 1021.0 0.0
22/01:30pm 20.6 18.7 15.2 71 3.2 SE 19 30 10 16 1021.2 1021.0 0.0
22/01:00pm 20.7 19.1 15.0 70 3.4 SSE 17 28 9 15 1021.5 1021.3 0.0
22/12:30pm 19.9 18.6 14.7 72 3.0 SE 15 20 8 11 1021.8 1021.6 0.0

Other Formats:

Comma delimited format used in spreadsheet applications
http://www.bom.gov.au/fwo/IDW60801/IDW60801.95647.axf

JavaScript Object Notation format (JSON) in row-major order
http://www.bom.gov.au/fwo/IDW60801/IDW60801.95647.json